SCBA/BBA METAR and TAF weather

Enter ICAO airport designator
Station Type Date Time Source
SCBA METAR 2020/01/18 21:00 UTC NOAA

SCBA 182100Z 30028KT CAVOK 22/02 Q1010


Station Type Date Time Source
SCBA Decoded METAR 2020/01/18 21:00 UTC NOAA

Balmaceda, Chile (SCBA) 45-55S 071-41W 520M
Jan 18, 2020 - 04:00 PM EST / 2020.01.18 2100 UTC
Wind: from the WNW (300 degrees) at 32 MPH (28 KT):0
Visibility: greater than 7 mile(s):0
Temperature: 71 F (22 C)
Dew Point: 35 F (2 C)
Relative Humidity: 26%
Pressure (altimeter): 29.83 in. Hg (1010 hPa)
ob: SCBA 182100Z 30028KT CAVOK 22/02 Q1010
cycle: 21

Station Type Date Time Source
SCBA TAF 2020/01/18 18:03 UTC NOAA

TAF SCBA 181613Z 1818/1918 30020KT CAVOK TX24/1819Z TN07/1910Z
TEMPO 1817/1823 30020G30KT
BECMG 1903/1905 31010KT SCT040
BECMG 1914/1916 30020KT

Example: see airport list